createdAt,value
2023-03-07T00:00:47.189Z,99376.34
2023-03-07T00:03:15.966Z,99373.78
2023-03-07T00:05:43.351Z,99376.53
2023-03-07T00:08:10.838Z,99377.31
2023-03-07T00:10:37.386Z,99380.06
2023-03-07T00:13:04.392Z,99373.16
2023-03-07T00:15:31.229Z,99376.78
2023-03-07T00:17:58.378Z,99379.44
2023-03-07T00:20:24.950Z,99387.28
2023-03-07T00:22:51.539Z,99381.31
2023-03-07T00:25:18.155Z,99379.53
2023-03-07T00:27:44.723Z,99384.09
2023-03-07T00:30:12.559Z,99382.81
2023-03-07T00:32:39.349Z,99389.31
2023-03-07T00:35:06.948Z,99380.72
2023-03-07T00:37:33.585Z,99385.47
2023-03-07T00:40:00.243Z,99377.84
2023-03-07T00:42:26.785Z,99383.25
2023-03-07T00:44:53.326Z,99382.47
2023-03-07T00:47:19.940Z,99382.63
2023-03-07T00:49:46.522Z,99383.53
2023-03-07T00:52:13.086Z,99380.59
2023-03-07T00:54:39.692Z,99381.44
2023-03-07T00:57:06.261Z,99377.94
2023-03-07T00:59:32.956Z,99370.06
2023-03-07T01:01:59.532Z,99370.06
2023-03-07T01:04:26.208Z,99365.94
2023-03-07T01:06:52.924Z,99371.25
2023-03-07T01:09:19.510Z,99366.88
2023-03-07T01:11:46.254Z,99366.16
2023-03-07T01:14:13.009Z,99364.47
2023-03-07T01:16:39.706Z,99364.56
2023-03-07T01:19:12.419Z,99366.56
2023-03-07T01:21:41.107Z,99361.38
2023-03-07T01:24:12.054Z,99353.50
2023-03-07T01:26:38.662Z,99349.06
2023-03-07T01:29:06.568Z,99350.03
2023-03-07T01:31:33.441Z,99352.56
2023-03-07T01:34:02.343Z,99354.38
2023-03-07T01:36:31.521Z,99351.63
2023-03-07T01:39:06.604Z,99356.69
2023-03-07T01:41:38.100Z,99351.19
2023-03-07T01:44:17.287Z,99355.53
2023-03-07T01:46:46.891Z,99356.38
2023-03-07T01:49:18.678Z,99350.25
2023-03-07T01:51:51.040Z,99344.94
2023-03-07T01:54:20.327Z,99338.03
2023-03-07T01:56:47.814Z,99341.50
2023-03-07T01:59:19.436Z,99339.91
2023-03-07T02:01:46.120Z,99340.78
2023-03-07T02:04:19.048Z,99339.91
2023-03-07T02:06:45.693Z,99339.91
2023-03-07T02:09:17.280Z,99333.25
2023-03-07T02:11:45.485Z,99339.84
2023-03-07T02:14:12.138Z,99340.44
2023-03-07T02:16:39.426Z,99332.69
2023-03-07T02:19:27.969Z,99324.72
2023-03-07T02:22:11.223Z,99326.75
2023-03-07T02:25:00.343Z,99329.31
2023-03-07T02:27:29.156Z,99322.84
2023-03-07T02:29:55.895Z,99323.47
2023-03-07T02:32:22.495Z,99330.28
2023-03-07T02:34:49.141Z,99330.06
2023-03-07T02:37:22.300Z,99333.44
2023-03-07T02:39:48.945Z,99328.91
2023-03-07T02:42:23.080Z,99337.59
2023-03-07T02:45:01.568Z,99333.06
2023-03-07T02:47:28.205Z,99330.59
2023-03-07T02:49:55.101Z,99335.91
2023-03-07T02:52:22.905Z,99327.94
2023-03-07T02:54:49.496Z,99339.41
2023-03-07T02:57:16.512Z,99335.03
2023-03-07T02:59:43.163Z,99334.09
2023-03-07T03:02:09.696Z,99332.28
2023-03-07T03:04:36.474Z,99331.47
2023-03-07T03:07:03.127Z,99335.81
2023-03-07T03:09:29.816Z,99336.00
2023-03-07T03:11:56.427Z,99335.16
2023-03-07T03:14:23.079Z,99324.56
2023-03-07T03:16:49.709Z,99324.56
2023-03-07T03:19:16.240Z,99325.50
2023-03-07T03:21:43.803Z,99323.59
2023-03-07T03:24:10.845Z,99322.63
2023-03-07T03:26:37.938Z,99325.19
2023-03-07T03:29:05.627Z,99331.31
2023-03-07T03:31:33.231Z,99332.28
2023-03-07T03:33:59.949Z,99328.81
2023-03-07T03:36:28.379Z,99325.28
2023-03-07T03:38:56.895Z,99321.78
2023-03-07T03:41:24.581Z,99314.78
2023-03-07T03:43:51.793Z,99316.69
2023-03-07T03:46:19.661Z,99319.34
2023-03-07T03:48:55.971Z,99321.78
2023-03-07T03:51:23.881Z,99305.13
2023-03-07T03:53:51.666Z,99313.09
2023-03-07T03:56:23.427Z,99318.38
2023-03-07T03:58:52.541Z,99315.84
2023-03-07T04:01:21.060Z,99317.53
2023-03-07T04:03:49.620Z,99316.59
2023-03-07T04:06:21.935Z,99320.09
2023-03-07T04:08:49.141Z,99314.78
2023-03-07T04:11:16.485Z,99320.09
2023-03-07T04:13:44.428Z,99319.25
2023-03-07T04:16:11.625Z,99315.84
2023-03-07T04:18:38.519Z,99315.97
2023-03-07T04:21:06.063Z,99321.16
2023-03-07T04:23:33.331Z,99331.88
2023-03-07T04:26:01.804Z,99325.19
2023-03-07T04:28:43.361Z,99334.41
2023-03-07T04:31:12.293Z,99328.44
2023-03-07T04:33:39.126Z,99325.91
2023-03-07T04:36:06.027Z,99327.59
2023-03-07T04:38:32.611Z,99339.91
2023-03-07T04:40:59.204Z,99336.19
2023-03-07T04:43:25.936Z,99342.25
2023-03-07T04:45:53.223Z,99345.75
2023-03-07T04:48:19.995Z,99348.31
2023-03-07T04:50:50.207Z,99341.00
2023-03-07T04:53:17.777Z,99349.69
2023-03-07T04:55:45.768Z,99346.06
2023-03-07T04:58:13.655Z,99339.06
2023-03-07T05:00:41.712Z,99354.16
2023-03-07T05:03:10.037Z,99346.19
2023-03-07T05:05:37.735Z,99347.13
2023-03-07T05:08:05.617Z,99341.72
2023-03-07T05:10:33.235Z,99345.44
2023-03-07T05:13:00.020Z,99348.94
2023-03-07T05:15:27.011Z,99345.53
2023-03-07T05:17:53.552Z,99344.69
2023-03-07T05:20:20.640Z,99343.97
2023-03-07T05:22:47.242Z,99347.66
2023-03-07T05:25:14.216Z,99348.72
2023-03-07T05:27:41.072Z,99347.00
2023-03-07T05:30:08.544Z,99350.75
2023-03-07T05:32:35.238Z,99349.47
2023-03-07T05:35:02.073Z,99354.66
2023-03-07T05:37:28.708Z,99357.88
2023-03-07T05:39:55.306Z,99351.38
2023-03-07T05:42:21.854Z,99348.53
2023-03-07T05:44:48.436Z,99350.31
2023-03-07T05:47:15.091Z,99353.09
2023-03-07T05:49:41.732Z,99354.88
2023-03-07T05:52:08.468Z,99360.09
2023-03-07T05:54:34.996Z,99365.06
2023-03-07T05:57:01.527Z,99367.81
2023-03-07T05:59:28.040Z,99361.56
2023-03-07T06:01:54.567Z,99364.97
2023-03-07T06:04:21.112Z,99359.59
2023-03-07T06:06:47.676Z,99365.81
2023-03-07T06:09:14.210Z,99365.72
2023-03-07T06:11:40.814Z,99368.81
2023-03-07T06:14:07.426Z,99367.63
2023-03-07T06:16:34.008Z,99375.19
2023-03-07T06:19:00.576Z,99376.66
2023-03-07T06:21:27.192Z,99386.13
2023-03-07T06:23:53.746Z,99380.28
2023-03-07T06:26:20.364Z,99382.72
2023-03-07T06:28:46.978Z,99386.97
2023-03-07T06:31:16.448Z,99393.13
2023-03-07T06:33:44.277Z,99384.72
2023-03-07T06:36:13.490Z,99380.16
2023-03-07T06:38:40.734Z,99390.44
2023-03-07T06:41:07.986Z,99387.25
2023-03-07T06:43:34.802Z,99393.09
2023-03-07T06:46:02.336Z,99391.94
2023-03-07T06:48:29.453Z,99388.94
2023-03-07T06:50:56.003Z,99390.44
2023-03-07T06:53:23.257Z,99400.63
2023-03-07T06:55:52.981Z,99396.56
2023-03-07T06:58:19.532Z,99389.00
2023-03-07T07:00:46.108Z,99390.38
2023-03-07T07:03:14.559Z,99400.34
2023-03-07T07:05:41.350Z,99396.50
2023-03-07T07:08:08.011Z,99387.94
2023-03-07T07:10:34.613Z,99397.06
2023-03-07T07:13:01.245Z,99393.84
2023-03-07T07:15:27.817Z,99395.72
2023-03-07T07:17:54.461Z,99390.69
2023-03-07T07:20:21.133Z,99391.81
2023-03-07T07:22:47.716Z,99393.78
2023-03-07T07:25:14.368Z,99394.78
2023-03-07T07:27:40.962Z,99401.09
2023-03-07T07:30:09.318Z,99404.00
2023-03-07T07:32:36.025Z,99401.75
2023-03-07T07:35:02.910Z,99400.19
2023-03-07T07:37:29.459Z,99401.41
2023-03-07T07:39:56.093Z,99405.53
2023-03-07T07:42:22.653Z,99404.19
2023-03-07T07:44:49.237Z,99407.25
2023-03-07T07:47:15.813Z,99404.22
2023-03-07T07:49:42.382Z,99404.59
2023-03-07T07:52:08.977Z,99412.22
2023-03-07T07:54:35.575Z,99410.03
2023-03-07T07:57:02.124Z,99415.84
2023-03-07T07:59:28.804Z,99409.22
2023-03-07T08:01:55.481Z,99411.25
2023-03-07T08:04:22.235Z,99405.69
2023-03-07T08:06:48.800Z,99404.94
2023-03-07T08:09:15.449Z,99398.28
2023-03-07T08:11:42.788Z,99394.41
2023-03-07T08:14:09.858Z,99404.31
2023-03-07T08:16:36.738Z,99401.72
2023-03-07T08:19:03.491Z,99400.03
2023-03-07T08:21:30.944Z,99399.28
2023-03-07T08:23:57.575Z,99402.41
2023-03-07T08:26:24.551Z,99398.38
2023-03-07T08:28:51.198Z,99400.16
2023-03-07T08:31:20.236Z,99403.06
2023-03-07T08:33:47.864Z,99396.09
2023-03-07T08:36:14.905Z,99401.31
2023-03-07T08:38:42.356Z,99401.75
2023-03-07T08:41:09.891Z,99406.31
2023-03-07T08:43:37.884Z,99411.16
2023-03-07T08:46:05.026Z,99409.34
2023-03-07T08:48:31.816Z,99409.47
2023-03-07T08:51:05.174Z,99413.94
2023-03-07T08:53:31.958Z,99408.06
2023-03-07T08:55:58.567Z,99406.44
2023-03-07T08:58:25.301Z,99412.97
2023-03-07T09:00:53.510Z,99408.53
2023-03-07T09:03:20.092Z,99405.09
2023-03-07T09:05:46.762Z,99405.03
2023-03-07T09:08:13.616Z,99410.25
2023-03-07T09:10:40.266Z,99406.31
2023-03-07T09:13:08.339Z,99413.78
2023-03-07T09:15:34.950Z,99410.84
2023-03-07T09:18:01.565Z,99416.78
2023-03-07T09:20:28.136Z,99414.56
2023-03-07T09:22:54.715Z,99419.44
2023-03-07T09:25:21.352Z,99411.97
2023-03-07T09:27:47.975Z,99413.41
2023-03-07T09:30:15.829Z,99410.19
2023-03-07T09:32:42.900Z,99411.59
2023-03-07T09:35:10.500Z,99407.69
2023-03-07T09:37:37.316Z,99407.25
2023-03-07T09:40:07.669Z,99410.78
2023-03-07T09:42:53.021Z,99405.47
2023-03-07T09:45:28.892Z,99408.91
2023-03-07T09:48:23.280Z,99405.13
2023-03-07T09:50:56.680Z,99403.44
2023-03-07T09:53:34.857Z,99398.13
2023-03-07T09:56:05.549Z,99405.03
2023-03-07T09:58:33.187Z,99401.78
2023-03-07T10:01:01.700Z,99395.47
2023-03-07T10:03:43.486Z,99398.41
2023-03-07T10:06:25.259Z,99387.84
2023-03-07T10:08:53.829Z,99400.19
2023-03-07T10:11:46.333Z,99399.34
2023-03-07T10:14:32.960Z,99401.34
2023-03-07T10:17:25.355Z,99395.78
2023-03-07T10:20:00.245Z,99409.91
2023-03-07T10:22:42.982Z,99403.94
2023-03-07T10:25:38.862Z,99401.59
2023-03-07T10:28:26.704Z,99403.53
2023-03-07T10:31:16.685Z,99401.81
2023-03-07T10:33:47.386Z,99398.84
2023-03-07T10:36:19.780Z,99390.63
2023-03-07T10:38:58.170Z,99393.38
2023-03-07T10:41:24.860Z,99386.63
2023-03-07T10:43:53.924Z,99381.19
2023-03-07T10:46:26.349Z,99373.13
2023-03-07T10:49:09.813Z,99375.59
2023-03-07T10:51:56.157Z,99377.00
2023-03-07T10:54:30.108Z,99372.94
2023-03-07T10:57:10.246Z,99362.50
2023-03-07T10:59:40.059Z,99357.38
2023-03-07T11:02:35.963Z,99351.44
2023-03-07T11:05:23.843Z,99360.06
2023-03-07T11:07:50.512Z,99352.88
2023-03-07T11:10:35.764Z,99346.19
2023-03-07T11:13:22.993Z,99350.97
2023-03-07T11:16:00.124Z,99344.72
2023-03-07T11:18:40.539Z,99349.13
2023-03-07T11:21:29.739Z,99335.03
2023-03-07T11:24:02.052Z,99343.22
2023-03-07T11:26:38.286Z,99331.19
2023-03-07T11:29:14.049Z,99330.53
2023-03-07T11:32:05.905Z,99309.91
2023-03-07T11:34:41.622Z,99317.13
2023-03-07T11:37:33.141Z,99313.28
2023-03-07T11:40:19.611Z,99317.34
2023-03-07T11:43:04.698Z,99323.22
2023-03-07T11:45:50.916Z,99320.81
2023-03-07T11:48:59.200Z,99318.31
2023-03-07T11:51:37.537Z,99314.75
2023-03-07T11:54:31.628Z,99314.44
2023-03-07T11:57:21.508Z,99322.78
2023-03-07T12:00:17.968Z,99310.28
2023-03-07T12:03:06.216Z,99313.41
2023-03-07T12:05:41.098Z,99307.66
2023-03-07T12:08:24.549Z,99320.88
2023-03-07T12:10:59.880Z,99300.03
2023-03-07T12:13:59.696Z,99315.97
2023-03-07T12:16:38.085Z,99298.50
2023-03-07T12:19:24.252Z,99295.94
2023-03-07T12:22:21.214Z,99292.38
2023-03-07T12:24:50.956Z,99285.69
2023-03-07T12:27:32.754Z,99297.28
2023-03-07T12:30:16.872Z,99295.47
2023-03-07T12:32:44.062Z,99293.75
2023-03-07T12:35:22.993Z,99285.03
2023-03-07T12:38:04.228Z,99292.94
2023-03-07T12:40:52.120Z,99285.09
2023-03-07T12:43:27.666Z,99283.13
2023-03-07T12:46:03.479Z,99283.56
2023-03-07T12:48:51.998Z,99284.44
2023-03-07T12:51:42.423Z,99293.47
2023-03-07T12:54:18.800Z,99286.97
2023-03-07T12:57:11.444Z,99289.06
2023-03-07T12:59:41.302Z,99295.41
2023-03-07T13:02:28.403Z,99283.72
2023-03-07T13:04:55.473Z,99296.13
2023-03-07T13:07:26.627Z,99279.25
2023-03-07T13:09:55.945Z,99281.19
2023-03-07T13:12:29.619Z,99285.13
2023-03-07T13:15:01.682Z,99294.16
2023-03-07T13:17:31.438Z,99309.38
2023-03-07T13:20:04.928Z,99311.31
2023-03-07T13:22:31.455Z,99298.22
2023-03-07T13:25:25.952Z,99290.91
2023-03-07T13:28:04.569Z,99287.09
2023-03-07T13:30:33.046Z,99297.63
2023-03-07T13:33:06.684Z,99301.84
2023-03-07T13:35:39.311Z,99302.28
2023-03-07T13:38:23.827Z,99290.34
2023-03-07T13:40:55.651Z,99293.13
2023-03-07T13:43:27.817Z,99295.94
2023-03-07T13:45:57.366Z,99289.59
2023-03-07T13:48:32.673Z,99296.63
2023-03-07T13:50:59.194Z,99285.94
2023-03-07T13:53:31.635Z,99290.00
2023-03-07T13:56:16.451Z,99269.31
2023-03-07T13:58:48.938Z,99278.91
2023-03-07T14:01:21.767Z,99271.44
2023-03-07T14:03:56.129Z,99266.81
2023-03-07T14:06:48.794Z,99251.59
2023-03-07T14:09:20.224Z,99253.59
2023-03-07T14:12:24.422Z,99241.59
2023-03-07T14:15:01.426Z,99234.88
2023-03-07T14:17:56.971Z,99235.00
2023-03-07T14:20:36.161Z,99241.09
2023-03-07T14:23:26.131Z,99233.06
2023-03-07T14:26:07.750Z,99225.44
2023-03-07T14:28:34.326Z,99224.31
2023-03-07T14:31:05.521Z,99229.66
2023-03-07T14:33:39.757Z,99226.72
2023-03-07T14:36:19.715Z,99219.56
2023-03-07T14:38:48.032Z,99216.16
2023-03-07T14:41:47.800Z,99228.28
2023-03-07T14:44:14.299Z,99231.78
2023-03-07T14:47:08.546Z,99226.56
2023-03-07T14:49:53.562Z,99219.53
2023-03-07T14:52:30.847Z,99219.25
2023-03-07T14:55:03.909Z,99220.50
2023-03-07T14:57:36.505Z,99220.22
2023-03-07T15:00:06.067Z,99230.03
2023-03-07T15:02:32.662Z,99222.16
2023-03-07T15:04:59.287Z,99219.50
2023-03-07T15:07:25.814Z,99222.88
2023-03-07T15:09:52.405Z,99222.88
2023-03-07T15:12:25.447Z,99222.00
2023-03-07T15:14:57.133Z,99222.16
2023-03-07T15:17:27.015Z,99220.50
2023-03-07T15:19:55.796Z,99210.91
2023-03-07T15:22:29.185Z,99215.78
2023-03-07T15:24:56.162Z,99213.25
2023-03-07T15:27:31.532Z,99218.16
2023-03-07T15:30:00.951Z,99214.63
2023-03-07T15:32:35.510Z,99209.69
2023-03-07T15:35:06.244Z,99207.16
2023-03-07T15:37:33.627Z,99211.50
2023-03-07T15:40:28.500Z,99200.22
2023-03-07T15:43:14.354Z,99197.56
2023-03-07T15:45:43.426Z,99194.91
2023-03-07T15:48:14.663Z,99179.84
2023-03-07T15:50:41.512Z,99176.78
2023-03-07T15:53:17.514Z,99170.72
2023-03-07T15:55:54.397Z,99166.25
2023-03-07T15:58:22.867Z,99168.91
2023-03-07T16:00:49.556Z,99166.25
2023-03-07T16:03:27.743Z,99157.25
2023-03-07T16:05:55.879Z,99160.06
2023-03-07T16:08:23.140Z,99159.19
2023-03-07T16:10:56.381Z,99163.00
2023-03-07T16:13:28.699Z,99154.13
2023-03-07T16:16:14.466Z,99164.81
2023-03-07T16:18:42.669Z,99157.34
2023-03-07T16:21:13.941Z,99152.00
2023-03-07T16:23:40.760Z,99151.88
2023-03-07T16:26:07.756Z,99133.31
2023-03-07T16:28:34.874Z,99134.44
2023-03-07T16:31:02.425Z,99127.53
2023-03-07T16:33:29.091Z,99137.66
2023-03-07T16:35:55.757Z,99140.00
2023-03-07T16:38:22.349Z,99138.47
2023-03-07T16:40:48.980Z,99133.53
2023-03-07T16:43:24.792Z,99131.72
2023-03-07T16:45:51.547Z,99125.13
2023-03-07T16:48:18.205Z,99122.44
2023-03-07T16:50:44.804Z,99125.13
2023-03-07T16:53:11.380Z,99120.75
2023-03-07T16:55:38.756Z,99118.38
2023-03-07T16:58:06.440Z,99115.84
2023-03-07T17:00:33.687Z,99122.28
2023-03-07T17:03:03.178Z,99126.94
2023-03-07T17:05:30.588Z,99130.56
2023-03-07T17:07:58.864Z,99130.25
2023-03-07T17:10:26.937Z,99129.69
2023-03-07T17:12:56.181Z,99128.66
2023-03-07T17:15:31.064Z,99129.06
2023-03-07T17:17:59.538Z,99134.25
2023-03-07T17:20:26.924Z,99135.94
2023-03-07T17:22:53.920Z,99132.56
2023-03-07T17:25:22.227Z,99133.69
2023-03-07T17:27:52.837Z,99123.56
2023-03-07T17:30:23.298Z,99121.53
2023-03-07T17:32:50.385Z,99119.97
2023-03-07T17:35:17.322Z,99121.22
2023-03-07T17:37:45.374Z,99120.78
2023-03-07T17:40:12.976Z,99120.34
2023-03-07T17:42:42.009Z,99123.25
2023-03-07T17:45:11.423Z,99117.75
2023-03-07T17:47:39.248Z,99123.59
2023-03-07T17:50:09.680Z,99112.47
2023-03-07T17:52:36.405Z,99114.56
2023-03-07T17:55:03.736Z,99121.97
2023-03-07T17:57:30.300Z,99116.31
2023-03-07T17:59:56.975Z,99111.63
2023-03-07T18:02:23.734Z,99114.78
2023-03-07T18:04:51.619Z,99103.91
2023-03-07T18:07:19.758Z,99106.03
2023-03-07T18:09:48.491Z,99112.78
2023-03-07T18:12:18.193Z,99115.06
2023-03-07T18:14:45.102Z,99109.47
2023-03-07T18:17:11.750Z,99104.41
2023-03-07T18:19:39.089Z,99104.66
2023-03-07T18:22:05.960Z,99104.09
2023-03-07T18:24:33.929Z,99099.47
2023-03-07T18:27:01.108Z,99097.78
2023-03-07T18:29:28.934Z,99099.84
2023-03-07T18:31:55.894Z,99098.63
2023-03-07T18:34:24.680Z,99108.03
2023-03-07T18:36:53.045Z,99101.88
2023-03-07T18:39:21.423Z,99104.78
2023-03-07T18:41:48.628Z,99106.88
2023-03-07T18:44:18.294Z,99098.56
2023-03-07T18:46:45.354Z,99104.25
2023-03-07T18:49:12.340Z,99107.91
2023-03-07T18:51:39.470Z,99095.44
2023-03-07T18:54:06.284Z,99100.66
2023-03-07T18:56:33.602Z,99106.09
2023-03-07T18:59:00.256Z,99101.28
2023-03-07T19:01:28.196Z,99100.94
2023-03-07T19:03:57.079Z,99096.72
2023-03-07T19:06:30.734Z,99093.22
2023-03-07T19:08:58.166Z,99085.34
2023-03-07T19:11:24.732Z,99092.25
2023-03-07T19:13:51.469Z,99085.66
2023-03-07T19:16:23.800Z,99078.13
2023-03-07T19:18:51.409Z,99067.34
2023-03-07T19:21:26.037Z,99065.56
2023-03-07T19:23:54.117Z,99062.72
2023-03-07T19:26:21.632Z,99059.50
2023-03-07T19:28:50.376Z,99060.34
2023-03-07T19:31:19.707Z,99064.69
2023-03-07T19:33:47.107Z,99060.22
2023-03-07T19:36:22.252Z,99069.91
2023-03-07T19:38:50.226Z,99054.63
2023-03-07T19:41:19.852Z,99061.78
2023-03-07T19:43:46.632Z,99059.13
2023-03-07T19:46:18.793Z,99066.00
2023-03-07T19:48:45.546Z,99072.03
2023-03-07T19:51:21.232Z,99064.06
2023-03-07T19:53:48.763Z,99066.00
2023-03-07T19:56:35.600Z,99062.50
2023-03-07T19:59:02.465Z,99065.84
2023-03-07T20:01:29.687Z,99060.41
2023-03-07T20:03:57.059Z,99063.06
2023-03-07T20:06:26.810Z,99054.84
2023-03-07T20:08:54.781Z,99060.88
2023-03-07T20:11:26.918Z,99064.97
2023-03-07T20:13:55.288Z,99061.63
2023-03-07T20:16:22.233Z,99063.75
2023-03-07T20:18:53.456Z,99060.72
2023-03-07T20:21:21.590Z,99055.13
2023-03-07T20:23:48.588Z,99062.75
2023-03-07T20:26:16.958Z,99065.13
2023-03-07T20:28:43.988Z,99062.22
2023-03-07T20:31:11.181Z,99051.25
2023-03-07T20:33:39.772Z,99044.81
2023-03-07T20:36:09.817Z,99047.50
2023-03-07T20:38:37.606Z,99051.00
2023-03-07T20:41:11.992Z,99047.78
2023-03-07T20:43:38.598Z,99052.50
2023-03-07T20:46:12.814Z,99056.16
2023-03-07T20:48:40.829Z,99058.69
2023-03-07T20:51:18.841Z,99047.91
2023-03-07T20:53:59.723Z,99045.94
2023-03-07T20:56:28.648Z,99036.66
2023-03-07T20:58:56.406Z,99040.16
2023-03-07T21:01:25.515Z,99039.16
2023-03-07T21:03:53.878Z,99032.88
2023-03-07T21:06:20.877Z,99037.22
2023-03-07T21:08:47.732Z,99040.59
2023-03-07T21:11:18.038Z,99046.78
2023-03-07T21:13:46.418Z,99044.13
2023-03-07T21:16:16.391Z,99043.00
2023-03-07T21:18:43.006Z,99049.16
2023-03-07T21:21:15.606Z,99044.13
2023-03-07T21:23:42.793Z,99043.38
2023-03-07T21:26:14.647Z,99043.69
2023-03-07T21:28:41.257Z,99047.91
2023-03-07T21:31:11.873Z,99044.94
2023-03-07T21:33:39.196Z,99038.50
2023-03-07T21:36:06.615Z,99033.91
2023-03-07T21:38:34.161Z,99037.53
2023-03-07T21:41:01.159Z,99033.75
2023-03-07T21:43:28.020Z,99021.28
2023-03-07T21:45:54.769Z,99019.47
2023-03-07T21:48:21.959Z,99014.94
2023-03-07T21:50:51.643Z,99017.75
2023-03-07T21:53:19.204Z,99015.25
2023-03-07T21:55:52.733Z,99021.53
2023-03-07T21:58:20.702Z,99008.19
2023-03-07T22:00:47.477Z,99010.84
2023-03-07T22:03:14.697Z,99000.34
2023-03-07T22:05:41.817Z,99010.84
2023-03-07T22:08:08.427Z,99006.13
2023-03-07T22:10:35.041Z,99002.47
2023-03-07T22:13:01.688Z,99010.59
2023-03-07T22:15:28.558Z,99014.13
2023-03-07T22:17:55.388Z,99011.47
2023-03-07T22:20:22.442Z,99010.59
2023-03-07T22:22:48.959Z,99000.63
2023-03-07T22:25:15.750Z,99005.03
2023-03-07T22:27:43.528Z,99003.47
2023-03-07T22:30:10.762Z,99003.31
2023-03-07T22:32:37.554Z,98991.09
2023-03-07T22:35:04.417Z,98988.56
2023-03-07T22:37:30.942Z,98987.03
2023-03-07T22:39:57.521Z,98990.94
2023-03-07T22:42:24.089Z,98995.41
2023-03-07T22:44:50.649Z,98995.28
2023-03-07T22:47:17.276Z,98992.91
2023-03-07T22:49:43.828Z,98998.03
2023-03-07T22:52:10.864Z,98997.00
2023-03-07T22:54:39.355Z,98986.59
2023-03-07T22:57:05.940Z,98987.63
2023-03-07T22:59:32.905Z,98984.91
2023-03-07T23:01:59.464Z,98991.84
2023-03-07T23:04:27.178Z,98987.13
2023-03-07T23:06:53.792Z,98993.06
2023-03-07T23:09:20.395Z,98986.97
2023-03-07T23:11:48.238Z,98985.34
2023-03-07T23:14:15.590Z,98986.81
2023-03-07T23:16:42.729Z,98984.22
2023-03-07T23:19:09.339Z,98987.38
2023-03-07T23:21:36.281Z,98987.72
2023-03-07T23:24:04.504Z,98992.56
2023-03-07T23:26:34.534Z,98991.50
2023-03-07T23:29:01.415Z,98988.91
2023-03-07T23:31:33.642Z,98994.94
2023-03-07T23:34:02.852Z,99003.03
2023-03-07T23:36:31.119Z,98994.97
2023-03-07T23:38:58.645Z,99009.44
2023-03-07T23:41:26.040Z,98996.91
2023-03-07T23:43:53.958Z,99008.38
2023-03-07T23:46:21.661Z,99015.81
2023-03-07T23:48:48.466Z,99018.34
2023-03-07T23:51:15.910Z,99021.44
2023-03-07T23:53:42.450Z,99012.50
2023-03-07T23:56:10.825Z,99018.78
2023-03-07T23:58:37.856Z,99013.91
